Toyofujimaru No.2 — 7JDI — position and weather

sailwx.info

Track history (hours):
 
Tides and Currents Weather Stations Pressure Air Temp Water Temp Dewpoint Dewpoint Depression Visibility Wind Speed Wind Dir Waves Ship Positions

Toyofujimaru No.2

Last reported at 2014-Dec-20 18:16 UTC. Time now 2014-Dec-23 00:08 UTC.
Position N 02°03' E 102°09'.

Length 165 m; draft 6.6 m.

Type: Cargo ship. MMSI: 432667000.

Date/timePositionNaut miles runAvg speedWind from/ knotsBaromVisibWave heightAir tempDewpointWater temp
2014-Dec-20 18:16N 02°03' E 102°09'1419.0
2014-Dec-20 17:33N 01°55' E 102°20'1919.1
2014-Dec-20 16:33N 01°46' E 102°36'7117.1
2014-Dec-20 12:23N 01°12' E 103°39'1313.3
2014-Dec-20 11:26N 01°12' E 103°51'1416.0
2014-Dec-20 10:33N 01°16' E 104°05'  
2014-Dec-14 22:15N 21°49' E 113°52'1719.6
2014-Dec-14 21:22N 22°03' E 114°04'1113.1
2014-Dec-14 20:31N 22°13' E 114°09'7 7.8
2014-Dec-14 19:33N 22°20' E 114°07'1 0.1
2014-Dec-14 12:18N 22°20' E 114°07'5 6.4
2014-Dec-14 11:32N 22°15' E 114°08'  
Track history (hours):
 
Tides and Currents Weather Stations Pressure Air Temp Water Temp Dewpoint Dewpoint Depression Visibility Wind Speed Wind Dir Waves Ship Positions

Toyofujimaru No.2

Last reported at 2014-Dec-20 18:16 UTC. Time now 2014-Dec-23 00:08 UTC.
Position N 02°03' E 102°09'.

Length 165 m; draft 6.6 m.

Type: Cargo ship. MMSI: 432667000.

Date/timePositionNaut miles runAvg speedWind from/ knotsBaromVisibWave heightAir tempDewpointWater temp
2014-Dec-20 18:16N 02°03' E 102°09'1419.0
2014-Dec-20 17:33N 01°55' E 102°20'1919.1
2014-Dec-20 16:33N 01°46' E 102°36'7117.1
2014-Dec-20 12:23N 01°12' E 103°39'1313.3
2014-Dec-20 11:26N 01°12' E 103°51'1416.0
2014-Dec-20 10:33N 01°16' E 104°05'  
2014-Dec-14 22:15N 21°49' E 113°52'1719.6
2014-Dec-14 21:22N 22°03' E 114°04'1113.1
2014-Dec-14 20:31N 22°13' E 114°09'7 7.8
2014-Dec-14 19:33N 22°20' E 114°07'1 0.1
2014-Dec-14 12:18N 22°20' E 114°07'5 6.4
2014-Dec-14 11:32N 22°15' E 114°08'  

Dump ship's entire track history